Terminal Aerodrome Forecast
Issued by NWS Charleston, WV

Home | Current Version | Previous Version | Text Only | Print | Product List | Glossary On
Versions: 1 2 3 4 5 6 7 8 9 10 11 12 13 14 15 16 17 18 19 20 21 22 23
000
FTUS41 KRLX 051700 RRA
TAFPKB
TAF
KPKB 051741Z 0518/0618 33007KT 3SM -SN BR OVC012
     FM051900 32007KT 6SM -SN OVC020
     FM052100 32005KT P6SM BKN025
     FM060200 VRB02KT P6SM SCT025
     FM061400 24002KT P6SM SCT025=

USA.gov is the U.S. government's official web portal to all federal, state and local government web resources and services.